Amsterdam, NY

11:25 AM EDT on August 27, 2016 (GMT -0400)
East End @ Kirk Douglas House | | Change Station

Elev 276 ft 42.93 °N, 74.18 °W | Updated 23 seconds ago

Partly Cloudy
Partly Cloudy
79.2 °F
Feels Like 81 °F
N
0.0
Wind Variable Wind from NW
Gusts 0.0 mph

Today
High -- | Low -- °F
--% Chance of Precip.
Yesterday
High -- | Low -- °F
Precip. -- in
Pressure 30.22 in
Visibility 15.0 miles
Clouds Few 4500 ft
Heat Index 81 °F
Dew Point 67 °F
Humidity 67%
Rainfall 0.00 in
Snow Depth Not available.
6:16 AM 7:38 PM
Waning Crescent, 23% visible
METAR KSCH 271459Z 00000KT 15SM FEW045 26/17 A3022
Pressure 30.22 in
Visibility 15.0 miles
Clouds Few 4500 ft
Heat Index 81 °F
Dew Point 67 °F
Humidity 67%
Rainfall 0.00 in
Snow Depth Not available.
6:16 AM 7:38 PM
Waning Crescent, 23% visible
METAR KSCH 271459Z 00000KT 15SM FEW045 26/17 A3022

10-Day Weather Forecast

Almanac

Astronomy

Aug. 27, 2016 Rise Set
Actual Time
Civil Twilight
Nautical Twilight
Astronomical Twilight
Moon
Length of Visible Light
Length of Day
Tomorrow will be .
, % of the Moon is Illuminated

Today's Extremes

State Highs State Lows

Community

WunderPhotos

Upload Photos

1,935,356 photos uploaded!

WunderBlog® & News

Nearby

Air Quality

  Air Quality AQ Index Pollutant
Not available.

Snow Depth

Station Depth Elevation

Earthquake Activity

City Distance Mag. Time & Date
Minimum magnitude displayed is 2.5.

Coastal Water Temperatures

Place Temperature

Stations

Nearby Weather Stations

Station Location Temp. Windchill Dew Point Humidity Wind Precip. Elev Updated Type
                   

Watches & Warnings

There are currently no watches in effect.